Time;durP1;ratioP1;P1;durP2;ratioP2;P2;SDS_P1;SDS_P2;PMS_P1;PMS_P2;Temp;Humidity;BMP_temperature;BMP_pressure;BME280_temperature;BME280_humidity;BME280_pressure;Samples;Min_cycle;Max_cycle;Signal;HPM_P1;HPM_P2
2023/08/16 00:02:15;;;;;;;10.05;5.40;;;17.40;99.90;;;;;;4939302;29;20035;-69
2023/08/16 00:04:41;;;;;;;8.90;5.75;;;17.60;99.90;;;;;;4939337;29;20050;-69
2023/08/16 00:07:08;;;;;;;6.38;5.20;;;17.20;99.90;;;;;;4939113;29;20047;-69
2023/08/16 00:09:34;;;;;;;7.10;5.22;;;17.40;99.90;;;;;;4939390;29;20039;-69
2023/08/16 00:11:59;;;;;;;8.23;5.45;;;17.50;99.90;;;;;;4939276;29;20467;-69
2023/08/16 00:14:25;;;;;;;7.28;4.85;;;17.50;99.90;;;;;;4939224;29;20089;-69
2023/08/16 00:16:51;;;;;;;8.95;5.30;;;17.20;99.90;;;;;;4937755;29;20483;-69
2023/08/16 00:19:16;;;;;;;8.52;5.13;;;17.50;99.90;;;;;;4938572;29;20069;-69
2023/08/16 00:21:43;;;;;;;9.02;5.53;;;17.50;99.90;;;;;;4939117;29;20035;-69
2023/08/16 00:24:09;;;;;;;7.13;4.65;;;17.50;99.90;;;;;;4938984;29;20047;-69
2023/08/16 00:26:34;;;;;;;7.15;4.53;;;17.40;99.90;;;;;;4956395;29;20564;-69
2023/08/16 00:29:01;;;;;;;8.32;5.18;;;17.20;99.90;;;;;;4939378;29;20121;-69
2023/08/16 00:31:30;;;;;;;7.38;4.72;;;17.30;99.90;;;;;;5018492;23;20062;-68
2023/08/16 00:34:02;;;;;;;5.68;4.22;;;;;;;;;;4935889;29;20154;-69
2023/08/16 00:36:42;;;;;;;5.25;4.47;;;17.30;99.90;;;;;;4920682;29;20047;-70
2023/08/16 00:39:19;;;;;;;6.97;4.55;;;17.20;99.90;;;;;;4920339;29;20048;-70
2023/08/16 00:42:00;;;;;;;5.97;3.88;;;17.30;99.90;;;;;;4920150;29;20042;-70
2023/08/16 00:44:36;;;;;;;8.43;5.28;;;;;;;;;;4920407;29;20042;-70
2023/08/16 00:47:02;;;;;;;6.80;4.72;;;;;;;;;;4937416;29;20389;-73
2023/08/16 00:49:37;;;;;;;5.55;4.57;;;16.90;99.90;;;;;;4920067;29;20418;-70
2023/08/16 00:52:04;;;;;;;6.93;5.13;;;17.10;99.90;;;;;;4937130;29;20039;-70
2023/08/16 00:54:57;;;;;;;8.20;6.05;;;17.00;99.90;;;;;;4904200;29;20054;-70
2023/08/16 00:57:32;;;;;;;8.00;5.63;;;17.00;99.90;;;;;;4904801;29;20499;-70
2023/08/16 01:00:10;;;;;;;9.77;5.05;;;17.20;99.90;;;;;;4919728;29;20066;-70
2023/08/16 01:02:36;;;;;;;6.28;5.15;;;17.20;99.90;;;;;;4920019;29;20043;-70
2023/08/16 01:05:06;;;;;;;7.68;5.15;;;17.00;99.90;;;;;;4937056;29;20038;-70
2023/08/16 01:07:34;;;;;;;7.18;5.25;;;17.10;99.90;;;;;;4936719;29;20044;-70
2023/08/16 01:10:13;;;;;;;6.15;5.47;;;;;;;;;;4921157;29;20040;-70
2023/08/16 01:13:01;;;;;;;11.38;6.88;;;16.80;99.90;;;;;;4919446;29;20039;-71
2023/08/16 01:15:41;;;;;;;9.43;5.90;;;17.00;99.90;;;;;;4905559;29;20055;-70
2023/08/16 01:18:08;;;;;;;10.73;6.45;;;16.90;99.90;;;;;;4919667;29;20047;-70
2023/08/16 01:20:48;;;;;;;;;;;;;;;;;;;;;
2023/08/16 01:24:07;;;;;;;7.32;5.72;;;16.80;99.90;;;;;;4936798;29;20468;-71
2023/08/16 01:26:45;;;;;;;11.45;6.05;;;17.00;99.90;;;;;;4849559;29;20047;-70
2023/08/16 01:29:17;;;;;;;8.55;6.72;;;16.70;99.90;;;;;;4919919;29;20051;-71
2023/08/16 01:31:49;;;;;;;8.05;5.75;;;17.00;99.90;;;;;;4930213;29;20046;-70
2023/08/16 01:34:21;;;;;;;9.88;5.82;;;;;;;;;;4954665;29;20078;-70
2023/08/16 01:36:50;;;;;;;8.73;6.28;;;;;;;;;;4931479;29;20039;-70
2023/08/16 01:39:22;;;;;;;7.40;6.05;;;;;;;;;;4930246;29;20053;-70
2023/08/16 01:42:13;;;;;;;8.00;5.78;;;16.80;99.90;;;;;;4921350;29;20121;-70
2023/08/16 01:44:53;;;;;;;8.57;6.00;;;16.80;99.90;;;;;;4943595;28;20062;-70
2023/08/16 01:47:22;;;;;;;8.80;5.38;;;16.80;99.90;;;;;;4927340;29;20050;-70
2023/08/16 01:50:02;;;;;;;6.35;5.15;;;16.90;99.90;;;;;;4930708;29;20051;-70
2023/08/16 01:52:36;;;;;;;8.43;5.63;;;16.60;99.90;;;;;;4937687;29;20053;-70
2023/08/16 01:55:12;;;;;;;7.22;5.38;;;16.90;99.90;;;;;;4931730;29;20066;-70
2023/08/16 01:57:40;;;;;;;9.52;5.57;;;;;;;;;;4919684;29;20467;-71
2023/08/16 02:00:18;;;;;;;7.90;5.72;;;16.80;99.90;;;;;;4937813;29;20043;-70
2023/08/16 02:02:56;;;;;;;8.30;5.18;;;16.80;99.90;;;;;;4937704;29;20384;-70
2023/08/16 02:05:32;;;;;;;9.35;6.00;;;16.60;99.90;;;;;;4939348;29;20459;-70
2023/08/16 02:07:59;;;;;;;7.85;5.28;;;;;;;;;;4938953;29;20091;-70
2023/08/16 02:10:25;;;;;;;6.88;5.70;;;;;;;;;;4938134;29;20059;-70
2023/08/16 02:12:54;;;;;;;6.45;5.82;;;16.60;99.90;;;;;;4938555;29;20063;-70
2023/08/16 02:15:22;;;;;;;11.27;6.25;;;;;;;;;;4954670;29;20464;-70
2023/08/16 02:17:51;;;;;;;7.18;5.65;;;16.40;99.90;;;;;;4911794;29;20669;-70
2023/08/16 02:20:22;;;;;;;8.95;6.53;;;16.50;99.90;;;;;;4936193;29;20051;-70
2023/08/16 02:22:53;;;;;;;9.10;6.70;;;16.40;99.90;;;;;;4935936;29;20043;-71
2023/08/16 02:25:31;;;;;;;11.30;6.95;;;16.40;99.90;;;;;;4953197;29;20400;-70
2023/08/16 02:28:05;;;;;;;8.43;6.50;;;;;;;;;;4937352;29;20050;-70
2023/08/16 02:31:10;;;;;;;;;;;;;;;;;;;;;
2023/08/16 02:33:37;;;;;;;8.43;6.10;;;;;;;;;;4936023;29;20043;-70
2023/08/16 02:36:08;;;;;;;9.82;5.90;;;;;;;;;;4937806;29;20047;-70
2023/08/16 02:38:54;;;;;;;7.82;6.40;;;16.40;99.90;;;;;;4937250;29;20045;-70
2023/08/16 02:41:28;;;;;;;8.63;6.50;;;16.50;99.90;;;;;;4937139;29;20492;-70
2023/08/16 02:43:54;;;;;;;7.28;5.90;;;;;;;;;;4954361;29;20078;-70
2023/08/16 02:46:22;;;;;;;10.57;6.68;;;;;;;;;;4954540;29;20063;-70
2023/08/16 02:48:48;;;;;;;9.57;6.60;;;;;;;;;;4937660;29;20455;-70
2023/08/16 02:51:16;;;;;;;10.00;6.18;;;16.20;99.90;;;;;;4954379;29;20046;-70
2023/08/16 02:53:42;;;;;;;7.78;5.53;;;;;;;;;;4921122;29;20573;-70
2023/08/16 02:56:14;;;;;;;9.50;6.47;;;16.40;99.90;;;;;;4937248;29;20090;-70
2023/08/16 02:58:52;;;;;;;9.77;5.90;;;16.50;99.90;;;;;;4937371;29;20443;-70
2023/08/16 03:01:19;;;;;;;7.32;5.85;;;;;;;;;;4953605;29;20051;-70
2023/08/16 03:03:55;;;;;;;9.18;6.00;;;16.30;99.90;;;;;;4954394;29;20412;-70
2023/08/16 03:06:24;;;;;;;7.70;6.35;;;;;;;;;;4954182;29;20602;-70
2023/08/16 03:08:50;;;;;;;7.53;5.43;;;16.40;99.90;;;;;;4954390;29;20039;-70
2023/08/16 03:11:19;;;;;;;8.98;5.72;;;;;;;;;;4954048;29;20039;-71
2023/08/16 03:13:45;;;;;;;7.93;5.93;;;;;;;;;;4936339;29;20502;-70
2023/08/16 03:16:14;;;;;;;10.68;5.85;;;;;;;;;;4953973;29;20046;-70
2023/08/16 03:18:41;;;;;;;10.32;5.85;;;;;;;;;;4937139;29;20076;-70
2023/08/16 03:21:23;;;;;;;8.95;6.43;;;16.30;99.90;;;;;;4937059;29;20075;-70
2023/08/16 03:23:51;;;;;;;8.38;6.32;;;;;;;;;;4953791;29;20057;-70
2023/08/16 03:26:17;;;;;;;12.68;7.57;;;;;;;;;;4936922;29;20521;-70
2023/08/16 03:28:48;;;;;;;7.63;6.35;;;16.20;99.90;;;;;;4953901;29;20122;-70
2023/08/16 03:31:22;;;;;;;7.95;5.97;;;;;;;;;;4936665;29;20046;-70
2023/08/16 03:33:49;;;;;;;11.27;6.32;;;;;;;;;;4936580;29;20086;-70
2023/08/16 03:36:27;;;;;;;8.63;6.75;;;16.20;99.90;;;;;;4937877;29;20043;-70
2023/08/16 03:38:53;;;;;;;9.32;6.15;;;;;;;;;;4957059;29;20090;-69
2023/08/16 03:41:19;;;;;;;8.70;6.07;;;;;;;;;;4948464;29;20529;-70
2023/08/16 03:43:53;;;;;;;9.50;6.57;;;;;;;;;;4946181;29;20043;-70
2023/08/16 03:46:22;;;;;;;7.05;5.70;;;16.20;99.90;;;;;;4936975;29;20035;-70
2023/08/16 03:49:01;;;;;;;7.68;6.10;;;16.10;99.90;;;;;;4953785;29;20043;-70
2023/08/16 03:51:37;;;;;;;9.65;5.75;;;16.00;99.90;;;;;;4953913;29;20054;-70
2023/08/16 03:54:15;;;;;;;7.55;6.10;;;16.00;99.90;;;;;;4936716;29;20126;-70
2023/08/16 03:56:47;;;;;;;6.50;5.55;;;;;;;;;;4953585;29;20031;-70
2023/08/16 04:02:09;;;;;;;9.23;6.30;;;;;;;;;;4935812;29;20043;-70
2023/08/16 04:04:37;;;;;;;8.57;5.88;;;;;;;;;;4936476;29;20091;-70
2023/08/16 04:07:10;;;;;;;7.18;5.75;;;15.80;99.90;;;;;;4937275;29;20087;-70
2023/08/16 04:09:43;;;;;;;8.65;5.53;;;;;;;;;;4939911;29;20051;-70
2023/08/16 04:12:35;;;;;;;7.55;5.70;;;15.90;99.90;;;;;;4940284;29;20456;-70
2023/08/16 04:15:27;;;;;;;9.63;5.05;;;16.20;99.90;;;;;;4939850;29;20503;-70
2023/08/16 04:17:59;;;;;;;7.30;5.93;;;16.00;99.90;;;;;;4957066;29;20412;-70
2023/08/16 04:20:31;;;;;;;5.88;5.28;;;;;;;;;;4939803;29;20039;-70
2023/08/16 04:23:00;;;;;;;9.30;5.20;;;;;;;;;;4939524;29;20562;-70
2023/08/16 04:25:31;;;;;;;6.35;5.07;;;16.00;99.90;;;;;;4923948;29;20043;-70
2023/08/16 04:28:18;;;;;;;11.77;5.53;;;;;;;;;;4956631;29;20047;-70
2023/08/16 04:30:43;;;;;;;7.38;5.47;;;;;;;;;;4956316;29;20530;-70
2023/08/16 04:33:09;;;;;;;7.28;5.43;;;16.00;99.90;;;;;;4939476;29;20134;-70
2023/08/16 04:35:35;;;;;;;8.77;5.43;;;;;;;;;;4940000;29;20043;-70
2023/08/16 04:38:28;;;;;;;6.63;5.13;;;16.00;99.90;;;;;;4939568;29;20388;-70
2023/08/16 04:40:56;;;;;;;10.57;6.25;;;16.60;99.90;;;;;;4956582;29;20414;-70
2023/08/16 04:43:32;;;;;;;9.73;6.53;;;15.70;99.90;;;;;;4956075;29;20079;-70
2023/08/16 04:46:06;;;;;;;12.95;6.20;;;16.10;99.90;;;;;;4939169;29;20039;-72
2023/08/16 04:48:59;;;;;;;13.50;6.90;;;16.00;99.90;;;;;;4956446;29;20043;-70
2023/08/16 04:51:26;;;;;;;10.23;5.80;;;;;;;;;;4956277;29;20043;-70
2023/08/16 04:53:52;;;;;;;7.00;5.38;;;;;;;;;;4939099;29;20043;-70
2023/08/16 04:56:31;;;;;;;9.40;6.25;;;16.30;99.90;;;;;;4956358;29;20114;-70
2023/08/16 04:59:00;;;;;;;13.05;7.25;;;;;;;;;;4939429;29;20054;-71
2023/08/16 05:01:29;;;;;;;13.48;7.07;;;;;;;;;;4923610;29;20059;-70
2023/08/16 05:03:57;;;;;;;13.27;8.02;;;;;;;;;;4938760;29;20050;-70
2023/08/16 05:06:25;;;;;;;11.68;8.05;;;16.30;99.90;;;;;;4923167;29;20055;-70
2023/08/16 05:08:51;;;;;;;13.70;7.47;;;16.20;99.90;;;;;;4956345;29;20118;-70
2023/08/16 05:11:17;;;;;;;12.15;7.40;;;;;;;;;;4938819;29;20127;-70
2023/08/16 05:13:43;;;;;;;16.85;7.78;;;16.40;99.90;;;;;;4956522;29;20098;-70
2023/08/16 05:16:10;;;;;;;16.02;8.15;;;;;;;;;;4923373;29;20044;-70
2023/08/16 05:18:54;;;;;;;13.57;7.63;;;16.30;99.90;;;;;;4938732;29;20043;-70
2023/08/16 05:21:49;;;;;;;10.63;7.55;;;16.50;99.90;;;;;;4939124;29;20043;-70
2023/08/16 05:24:18;;;;;;;11.70;8.63;;;16.60;99.90;;;;;;4922569;29;20054;-70
2023/08/16 05:26:44;;;;;;;13.40;7.75;;;;;;;;;;4938818;29;20046;-70
2023/08/16 05:29:10;;;;;;;11.57;8.75;;;16.70;99.90;;;;;;4955491;29;20043;-70
2023/08/16 05:31:41;;;;;;;13.98;8.60;;;16.60;99.90;;;;;;4938478;29;20072;-70
2023/08/16 05:34:07;;;;;;;12.23;8.18;;;16.70;99.90;;;;;;4921668;29;20063;-70
2023/08/16 05:36:36;;;;;;;13.68;8.02;;;16.80;99.90;;;;;;4922627;29;20086;-70
2023/08/16 05:39:22;;;;;;;9.90;8.05;;;17.00;99.90;;;;;;4922216;29;20047;-70
2023/08/16 05:41:51;;;;;;;11.07;8.02;;;;;;;;;;4937727;29;20194;-70
2023/08/16 05:44:45;;;;;;;9.95;7.65;;;17.10;99.90;;;;;;4919375;29;20083;-70
2023/08/16 05:47:17;;;;;;;11.20;7.95;;;16.80;99.90;;;;;;4919497;29;20048;-70
2023/08/16 05:49:46;;;;;;;11.77;7.53;;;;;;;;;;4936399;29;20043;-70
2023/08/16 05:52:18;;;;;;;10.95;8.50;;;;;;;;;;4903617;29;20531;-70
2023/08/16 05:54:56;;;;;;;14.13;9.23;;;17.50;99.90;;;;;;4903285;29;20044;-70
2023/08/16 05:57:28;;;;;;;10.35;7.82;;;;;;;;;;4929327;29;20516;-70
2023/08/16 05:59:54;;;;;;;11.52;8.95;;;;;;;;;;4916781;29;20079;-70
2023/08/16 06:02:23;;;;;;;14.35;8.80;;;17.60;99.90;;;;;;4934250;29;20031;-70
2023/08/16 06:04:52;;;;;;;14.10;8.75;;;17.50;99.90;;;;;;4933209;29;20046;-71
2023/08/16 06:07:21;;;;;;;14.88;10.00;;;;;;;;;;4917869;29;20074;-70
2023/08/16 06:09:50;;;;;;;10.20;8.57;;;17.60;99.90;;;;;;4917582;29;20039;-70
2023/08/16 06:12:27;;;;;;;15.25;9.55;;;17.70;99.90;;;;;;4920849;29;20059;-70
2023/08/16 06:15:00;;;;;;;13.25;8.40;;;17.70;99.90;;;;;;4917577;29;20046;-70
2023/08/16 06:17:34;;;;;;;11.60;8.88;;;;;;;;;;4900357;29;20043;-70
2023/08/16 06:20:04;;;;;;;10.25;7.80;;;18.00;99.90;;;;;;4901252;29;20047;-70
2023/08/16 06:22:33;;;;;;;11.38;8.60;;;;;;;;;;4913444;29;20035;-70
2023/08/16 06:25:10;;;;;;;13.10;8.18;;;;;;;;;;4929388;29;20043;-70
2023/08/16 06:27:36;;;;;;;12.73;7.95;;;;;;;;;;4942522;29;20046;-70
2023/08/16 06:30:11;;;;;;;12.18;7.75;;;;;;;;;;4924429;29;20069;-70
2023/08/16 06:32:46;;;;;;;8.77;6.72;;;18.50;99.90;;;;;;4943482;29;20071;-70
2023/08/16 06:35:54;;;;;;;;;;;;;;;;;;;;;
2023/08/16 06:38:26;;;;;;;9.30;5.55;;;18.70;99.90;;;;;;4903274;29;20058;-70
2023/08/16 06:41:03;;;;;;;8.85;5.60;;;18.70;99.90;;;;;;4913119;29;20056;-70
2023/08/16 06:43:30;;;;;;;6.93;5.47;;;;;;;;;;4908682;29;20428;-69
2023/08/16 06:46:07;;;;;;;11.68;5.63;;;18.80;99.90;;;;;;4900317;29;20552;-70
2023/08/16 06:48:40;;;;;;;17.60;6.18;;;18.80;99.90;;;;;;4936912;29;20051;-70
2023/08/16 06:51:15;;;;;;;9.68;4.90;;;19.40;99.90;;;;;;4927887;29;20075;-70
2023/08/16 06:53:51;;;;;;;;;;;;;;;;;;;;;
2023/08/16 06:56:23;;;;;;;6.28;4.88;;;19.50;99.90;;;;;;4944931;29;20035;-70
2023/08/16 06:58:57;;;;;;;9.40;5.05;;;19.80;99.90;;;;;;4934677;29;20057;-70
2023/08/16 07:01:25;;;;;;;8.70;4.80;;;;;;;;;;4915542;29;20036;-70
2023/08/16 07:04:07;;;;;;;10.85;5.00;;;20.00;99.90;;;;;;4916720;29;20090;-70
2023/08/16 07:06:38;;;;;;;8.35;4.32;;;;;;;;;;4915781;29;20039;-70
2023/08/16 07:09:06;;;;;;;6.45;4.07;;;20.10;99.90;;;;;;4934471;29;20515;-70
2023/08/16 07:11:38;;;;;;;4.95;2.80;;;20.40;99.90;;;;;;4912993;29;20511;-70
2023/08/16 07:14:06;;;;;;;11.80;2.97;;;;;;;;;;4930546;29;20036;-70
2023/08/16 07:16:33;;;;;;;5.43;2.55;;;;;;;;;;4899037;29;20035;-69
2023/08/16 07:18:59;;;;;;;9.50;3.55;;;;;;;;;;4918269;29;20040;-69
2023/08/16 07:21:28;;;;;;;5.22;2.25;;;20.80;99.90;;;;;;4918100;29;20103;-69
2023/08/16 07:23:54;;;;;;;10.13;2.97;;;20.90;99.90;;;;;;4915787;29;20039;-70
2023/08/16 07:26:20;;;;;;;7.97;3.20;;;21.00;99.90;;;;;;4912458;29;20122;-70
2023/08/16 07:28:45;;;;;;;5.20;2.70;;;21.00;99.90;;;;;;4936529;29;20047;-69
2023/08/16 07:31:14;;;;;;;4.72;2.55;;;;;;;;;;4937141;29;20414;-69
2023/08/16 07:33:44;;;;;;;6.43;2.97;;;21.20;99.90;;;;;;4953787;29;20522;-69
2023/08/16 07:36:14;;;;;;;7.95;2.95;;;;;;;;;;4921457;29;20392;-69
2023/08/16 07:38:39;;;;;;;4.45;2.30;;;21.40;99.90;;;;;;4936711;29;20035;-70
2023/08/16 07:41:08;;;;;;;9.15;3.00;;;;;;;;;;4936933;29;20127;-70
2023/08/16 07:43:34;;;;;;;6.10;4.10;;;21.20;99.90;;;;;;4939804;29;20388;-69
2023/08/16 07:46:02;;;;;;;9.35;3.42;;;21.20;99.90;;;;;;4940558;29;20035;-70
2023/08/16 07:48:29;;;;;;;4.68;2.58;;;21.20;99.90;;;;;;4957618;29;20039;-69
2023/08/16 07:51:01;;;;;;;4.68;2.20;;;21.50;99.90;;;;;;4940475;29;20400;-69
2023/08/16 07:53:27;;;;;;;9.10;2.10;;;;;;;;;;4957458;29;20075;-70
2023/08/16 07:55:53;;;;;;;6.82;2.63;;;21.70;99.90;;;;;;4940710;29;20126;-70
2023/08/16 07:58:19;;;;;;;4.65;3.20;;;;;;;;;;4940872;29;20134;-70
2023/08/16 08:00:48;;;;;;;4.50;2.63;;;21.60;99.90;;;;;;4940439;29;20450;-70
2023/08/16 08:03:25;;;;;;;3.55;2.42;;;21.70;99.90;;;;;;4940517;29;20042;-69
2023/08/16 08:06:05;;;;;;;9.32;2.85;;;22.10;99.90;;;;;;4957897;29;20036;-69
2023/08/16 08:08:33;;;;;;;6.28;2.85;;;21.90;99.90;;;;;;4957779;29;20407;-70
2023/08/16 08:11:01;;;;;;;4.65;2.58;;;21.80;99.90;;;;;;4957377;29;20123;-70
2023/08/16 08:13:32;;;;;;;3.28;2.90;;;22.00;99.90;;;;;;4922976;29;20052;-70
2023/08/16 08:16:00;;;;;;;7.65;2.90;;;;;;;;;;4940537;29;20039;-70
2023/08/16 08:18:26;;;;;;;6.40;2.67;;;22.10;99.90;;;;;;4924103;29;20122;-70
2023/08/16 08:20:55;;;;;;;3.15;2.53;;;22.00;99.90;;;;;;4939688;29;20048;-70
2023/08/16 08:23:22;;;;;;;6.10;3.03;;;;;;;;;;4939606;29;20054;-69
2023/08/16 08:25:48;;;;;;;8.60;2.90;;;22.30;99.90;;;;;;4939903;29;20587;-70
2023/08/16 08:28:17;;;;;;;5.07;3.03;;;22.70;99.90;;;;;;4939779;29;20079;-70
2023/08/16 08:30:46;;;;;;;7.40;2.80;;;22.80;99.90;;;;;;4939491;29;20055;-70
2023/08/16 08:33:14;;;;;;;9.57;3.20;;;22.60;99.90;;;;;;4923436;29;20039;-70
2023/08/16 08:35:43;;;;;;;5.15;2.95;;;22.70;99.90;;;;;;4923512;29;20113;-70
2023/08/16 08:38:11;;;;;;;5.18;2.80;;;;;;;;;;4939425;29;20626;-70
2023/08/16 08:40:40;;;;;;;4.95;2.65;;;22.40;99.90;;;;;;4939416;29;20047;-70
2023/08/16 08:43:12;;;;;;;4.40;2.30;;;22.10;99.90;;;;;;4939383;29;20040;-69
2023/08/16 08:45:41;;;;;;;3.93;2.50;;;22.20;99.90;;;;;;4939684;29;20087;-70
2023/08/16 08:48:08;;;;;;;3.65;2.40;;;22.10;99.90;;;;;;4940084;29;20134;-70
2023/08/16 08:50:44;;;;;;;7.30;3.10;;;22.00;99.90;;;;;;4956387;29;20051;-69
2023/08/16 08:53:10;;;;;;;3.03;2.40;;;22.30;99.90;;;;;;4938231;29;20050;-69
2023/08/16 08:55:45;;;;;;;3.95;2.25;;;22.40;99.90;;;;;;4939503;29;20050;-70
2023/08/16 08:58:17;;;;;;;9.15;3.85;;;22.40;99.90;;;;;;4956319;29;20046;-70
2023/08/16 09:00:44;;;;;;;5.30;2.30;;;22.40;99.90;;;;;;4956236;29;20043;-69
2023/08/16 09:03:20;;;;;;;7.07;2.42;;;22.50;99.90;;;;;;4939071;29;20044;-69
2023/08/16 09:05:56;;;;;;;2.88;2.40;;;22.70;99.90;;;;;;4938940;29;20043;-70
2023/08/16 09:08:31;;;;;;;6.75;2.35;;;22.90;99.90;;;;;;4939273;29;20046;-70
2023/08/16 09:11:01;;;;;;;4.78;1.90;;;23.10;99.90;;;;;;4923338;29;20508;-70
2023/08/16 09:13:27;;;;;;;3.20;2.00;;;23.00;99.90;;;;;;4955873;29;20043;-70
2023/08/16 09:15:53;;;;;;;6.45;1.73;;;23.00;99.90;;;;;;4938811;29;20039;-70
2023/08/16 09:18:21;;;;;;;6.43;2.83;;;23.40;99.90;;;;;;4938688;29;20035;-70
2023/08/16 09:20:51;;;;;;;4.57;2.33;;;23.50;99.90;;;;;;4938925;29;20047;-70
2023/08/16 09:23:21;;;;;;;3.97;2.33;;;23.10;99.90;;;;;;4922581;29;20039;-70
2023/08/16 09:25:49;;;;;;;3.97;2.47;;;22.90;99.90;;;;;;4938850;29;20047;-70
2023/08/16 09:28:19;;;;;;;2.85;2.22;;;23.30;99.90;;;;;;4956223;29;20075;-70
2023/08/16 09:30:44;;;;;;;7.95;2.80;;;25.80;99.90;;;;;;4938399;29;20039;-70
2023/08/16 09:33:14;;;;;;;4.57;1.83;;;23.70;99.90;;;;;;4955432;29;20047;-69
2023/08/16 09:35:50;;;;;;;4.30;2.13;;;23.80;99.90;;;;;;4922968;29;20050;-70
2023/08/16 09:38:24;;;;;;;3.63;1.83;;;23.90;99.90;;;;;;4955716;29;20151;-70
2023/08/16 09:40:53;;;;;;;2.15;1.60;;;23.80;99.90;;;;;;4938299;29;20507;-70
2023/08/16 09:43:40;;;;;;;5.45;1.77;;;23.90;99.90;;;;;;4938241;29;20046;-70
2023/08/16 09:46:12;;;;;;;4.13;2.33;;;24.00;99.90;;;;;;4938621;29;20039;-70
2023/08/16 09:48:47;;;;;;;3.83;1.88;;;23.00;99.90;;;;;;4922583;29;20043;-70
2023/08/16 09:51:19;;;;;;;5.63;2.38;;;24.00;99.90;;;;;;4937926;29;20035;-70
2023/08/16 09:53:47;;;;;;;7.97;2.45;;;24.00;99.90;;;;;;4937830;29;20039;-70
2023/08/16 09:56:18;;;;;;;3.63;1.88;;;22.50;99.90;;;;;;4938295;29;20431;-70
2023/08/16 09:58:57;;;;;;;;;;;;;;;;;;;;;
2023/08/16 10:01:26;;;;;;;3.53;2.13;;;24.80;99.90;;;;;;4939443;29;20047;-70
2023/08/16 10:03:55;;;;;;;5.30;2.03;;;23.90;99.90;;;;;;4937474;28;20043;-70
2023/08/16 10:06:32;;;;;;;3.28;1.90;;;26.30;99.90;;;;;;4921821;29;20054;-70
2023/08/16 10:09:07;;;;;;;5.97;2.15;;;24.10;99.90;;;;;;4938095;29;20038;-70
2023/08/16 10:11:36;;;;;;;5.30;1.70;;;23.90;99.90;;;;;;4922483;29;20062;-74
2023/08/16 10:14:08;;;;;;;3.58;1.63;;;22.50;99.90;;;;;;4934646;29;20073;-69
2023/08/16 10:16:44;;;;;;;4.97;1.73;;;21.60;99.90;;;;;;4903991;29;20051;-70
2023/08/16 10:19:14;;;;;;;4.07;1.88;;;20.70;99.90;;;;;;4913358;29;20126;-70
2023/08/16 10:21:49;;;;;;;3.70;1.58;;;26.00;99.90;;;;;;4921351;29;20044;-70
2023/08/16 10:24:18;;;;;;;2.83;1.40;;;23.40;99.90;;;;;;4935610;29;20095;-70
2023/08/16 10:26:59;;;;;;;3.22;1.70;;;23.20;99.90;;;;;;4908217;29;20103;-70
2023/08/16 10:29:40;;;;;;;3.70;1.70;;;23.30;99.90;;;;;;4900455;29;20032;-70
2023/08/16 10:32:13;;;;;;;3.08;2.05;;;23.80;99.90;;;;;;4899936;29;20047;-72
2023/08/16 10:34:42;;;;;;;2.47;1.60;;;23.90;99.90;;;;;;4905413;29;20050;-70
2023/08/16 10:37:08;;;;;;;5.60;2.15;;;23.70;99.90;;;;;;4903041;29;20090;-69
2023/08/16 10:39:47;;;;;;;5.30;1.40;;;24.10;99.90;;;;;;4935171;29;20052;-70
2023/08/16 10:42:20;;;;;;;5.32;1.33;;;24.50;99.90;;;;;;4935333;29;20063;-69
2023/08/16 10:45:02;;;;;;;;;;;;;;;;;;;;;
2023/08/16 10:47:43;;;;;;;2.22;1.10;;;24.50;99.90;;;;;;4904485;29;20040;-69
2023/08/16 10:50:30;;;;;;;4.00;2.15;;;24.70;99.90;;;;;;4892927;29;20397;-70
2023/08/16 10:53:02;;;;;;;2.90;1.60;;;22.70;99.90;;;;;;4903951;29;20062;-70
2023/08/16 10:55:31;;;;;;;4.27;2.13;;;24.10;99.90;;;;;;4911458;29;20098;-70
2023/08/16 10:57:57;;;;;;;2.28;1.50;;;24.20;99.90;;;;;;4903162;29;20103;-69
2023/08/16 11:00:32;;;;;;;3.58;1.38;;;26.40;99.90;;;;;;4909310;29;20052;-70
2023/08/16 11:03:05;;;;;;;6.45;1.67;;;24.10;99.90;;;;;;4907801;29;20451;-70
2023/08/16 11:05:31;;;;;;;;;;;24.50;99.90;;;;;;4891353;29;20051;-70
2023/08/16 11:08:09;;;;;;;2.42;1.13;;;24.50;99.90;;;;;;4908804;29;20387;-70
2023/08/16 11:10:46;;;;;;;2.92;1.30;;;25.20;99.90;;;;;;4928831;29;20504;-70
2023/08/16 11:13:15;;;;;;;2.70;1.35;;;25.40;99.90;;;;;;4909837;29;20044;-70
2023/08/16 11:15:43;;;;;;;2.53;1.30;;;25.80;99.90;;;;;;4931684;29;20039;-70
2023/08/16 11:18:09;;;;;;;2.50;1.30;;;24.00;99.90;;;;;;4910942;29;20035;-70
2023/08/16 11:20:38;;;;;;;2.78;1.10;;;27.40;99.90;;;;;;4917269;29;20118;-70
2023/08/16 11:23:17;;;;;;;4.50;1.60;;;24.50;99.90;;;;;;4934117;29;20500;-70
2023/08/16 11:25:45;;;;;;;2.38;1.10;;;25.50;99.90;;;;;;4917678;29;20063;-70
2023/08/16 11:28:17;;;;;;;2.80;1.33;;;26.20;99.90;;;;;;4901921;29;20411;-70
2023/08/16 11:30:43;;;;;;;3.53;1.30;;;26.00;99.90;;;;;;4917767;29;20043;-70
2023/08/16 11:33:15;;;;;;;3.80;1.55;;;25.30;99.90;;;;;;4916746;29;20335;-70
2023/08/16 11:35:41;;;;;;;2.22;1.08;;;24.70;99.90;;;;;;4901968;29;20047;-70
2023/08/16 11:38:09;;;;;;;3.63;1.10;;;24.80;99.90;;;;;;4901655;29;20047;-69
2023/08/16 11:40:45;;;;;;;2.53;1.15;;;25.00;99.90;;;;;;4934571;29;20051;-70
2023/08/16 11:43:11;;;;;;;2.13;1.13;;;24.50;99.90;;;;;;4917250;29;20500;-70
2023/08/16 11:45:40;;;;;;;2.60;0.95;;;25.40;99.90;;;;;;4917344;29;20068;-70
2023/08/16 11:48:06;;;;;;;2.55;1.40;;;25.20;99.90;;;;;;4917067;29;20519;-70
2023/08/16 11:50:35;;;;;;;4.75;1.85;;;26.00;99.90;;;;;;4917485;29;20546;-69
2023/08/16 11:53:07;;;;;;;2.75;1.35;;;26.20;99.90;;;;;;4917125;29;20126;-70
2023/08/16 11:55:33;;;;;;;1.42;0.90;;;24.70;99.90;;;;;;4901989;29;20044;-70
2023/08/16 11:58:14;;;;;;;2.70;1.08;;;26.20;99.90;;;;;;4934022;29;20508;-70
2023/08/16 12:00:43;;;;;;;2.20;0.80;;;24.40;99.90;;;;;;4917718;29;20404;-70
2023/08/16 12:03:23;;;;;;;2.85;1.17;;;26.70;99.90;;;;;;4917633;29;20044;-71
2023/08/16 12:06:03;;;;;;;2.50;1.40;;;26.60;99.90;;;;;;4917935;29;20067;-70
2023/08/16 12:08:37;;;;;;;2.22;0.88;;;26.20;99.90;;;;;;4917670;29;20052;-70
2023/08/16 12:11:05;;;;;;;1.38;0.90;;;25.50;99.90;;;;;;4898028;29;20035;-70
2023/08/16 12:13:39;;;;;;;2.08;0.90;;;25.60;99.90;;;;;;4930956;29;20171;-71
2023/08/16 12:16:18;;;;;;;;;;;;;;;;;;;;;
2023/08/16 12:18:50;;;;;;;2.50;0.95;;;26.40;99.90;;;;;;4903867;29;20119;-70
2023/08/16 12:21:19;;;;;;;3.00;1.15;;;25.80;99.90;;;;;;4910245;29;20052;-70
2023/08/16 12:23:46;;;;;;;2.08;0.98;;;26.20;99.90;;;;;;4895518;29;20118;-71
2023/08/16 12:26:19;;;;;;;3.85;0.95;;;25.50;99.90;;;;;;4898369;29;20090;-70
2023/08/16 12:29:00;;;;;;;4.88;1.25;;;25.30;99.90;;;;;;4919724;29;20043;-70
2023/08/16 12:31:32;;;;;;;4.03;0.93;;;25.50;99.90;;;;;;4920418;29;20467;-70
2023/08/16 12:33:57;;;;;;;3.70;1.10;;;25.50;99.90;;;;;;4926878;23;20048;-68
2023/08/16 12:36:23;;;;;;;2.70;0.90;;;25.40;99.90;;;;;;4901078;29;20036;-68
2023/08/16 12:38:49;;;;;;;2.63;1.10;;;25.50;99.90;;;;;;4909067;29;20052;-69
2023/08/16 12:41:14;;;;;;;5.82;0.90;;;25.90;99.90;;;;;;4903248;29;20051;-68
2023/08/16 12:43:41;;;;;;;2.40;0.70;;;26.20;99.90;;;;;;4936702;29;20472;-69
2023/08/16 12:46:06;;;;;;;1.98;1.20;;;26.30;99.90;;;;;;4919895;29;20046;-70
2023/08/16 12:48:33;;;;;;;1.33;0.70;;;26.20;99.90;;;;;;4918961;29;20415;-69
2023/08/16 12:50:59;;;;;;;5.60;1.15;;;26.10;99.90;;;;;;4908880;29;20401;-68
2023/08/16 12:53:24;;;;;;;2.33;0.70;;;26.20;99.90;;;;;;4910488;29;20098;-68
2023/08/16 12:55:50;;;;;;;1.98;0.80;;;26.90;99.90;;;;;;4908944;29;20036;-69
2023/08/16 12:58:16;;;;;;;1.85;0.60;;;26.50;99.90;;;;;;4928164;29;20164;-69
2023/08/16 13:00:41;;;;;;;3.17;0.95;;;26.10;99.90;;;;;;4910272;29;20040;-68
2023/08/16 13:03:07;;;;;;;2.08;0.90;;;25.70;99.90;;;;;;4908203;29;20040;-68
2023/08/16 13:05:33;;;;;;;3.45;1.00;;;25.20;99.90;;;;;;4910375;29;20035;-68
2023/08/16 13:07:58;;;;;;;2.53;1.15;;;25.60;99.90;;;;;;4915755;29;20069;-68
2023/08/16 13:10:24;;;;;;;2.75;0.90;;;26.00;99.90;;;;;;4920543;29;20050;-69
2023/08/16 13:12:50;;;;;;;3.22;1.80;;;26.50;99.90;;;;;;4909062;29;20412;-68
2023/08/16 13:15:15;;;;;;;0.95;0.82;;;26.10;99.90;;;;;;4927871;29;20039;-68
2023/08/16 13:17:41;;;;;;;4.30;1.00;;;26.40;99.90;;;;;;4909194;29;20123;-68
2023/08/16 13:20:10;;;;;;;3.05;0.90;;;25.80;99.90;;;;;;4926193;29;20484;-67
2023/08/16 13:22:35;;;;;;;3.15;0.95;;;26.20;99.90;;;;;;4910340;29;20039;-67
2023/08/16 13:25:03;;;;;;;2.05;0.95;;;26.70;99.90;;;;;;4925819;29;20036;-68
2023/08/16 13:27:29;;;;;;;3.47;0.88;;;25.90;99.90;;;;;;4904871;29;20044;-69
2023/08/16 13:29:55;;;;;;;3.20;0.90;;;26.20;99.90;;;;;;4900343;29;20466;-69
2023/08/16 13:32:20;;;;;;;4.85;1.00;;;26.60;99.90;;;;;;4900141;29;20046;-69
2023/08/16 13:34:46;;;;;;;2.85;1.00;;;26.50;99.90;;;;;;4884390;29;20047;-68
2023/08/16 13:37:12;;;;;;;2.30;0.88;;;26.10;99.90;;;;;;4899241;29;20040;-68
2023/08/16 13:39:38;;;;;;;1.65;0.90;;;26.40;99.90;;;;;;4899641;29;20095;-68
2023/08/16 13:42:04;;;;;;;3.28;1.20;;;25.60;99.90;;;;;;4899867;29;20040;-67
2023/08/16 13:44:29;;;;;;;1.52;1.00;;;25.80;99.90;;;;;;4899541;29;20037;-65